createdAt,value
2018-08-30T00:00:51.483Z,99.99
2018-08-30T00:01:51.471Z,99.99
2018-08-30T00:02:51.458Z,99.99
2018-08-30T00:03:51.447Z,99.99
2018-08-30T00:04:51.437Z,99.99
2018-08-30T00:05:51.419Z,99.99
2018-08-30T00:06:51.414Z,99.99
2018-08-30T00:07:51.395Z,99.99
2018-08-30T00:08:51.387Z,99.99
2018-08-30T00:09:51.373Z,99.99
2018-08-30T00:10:51.358Z,99.99
2018-08-30T00:11:51.348Z,99.99
2018-08-30T00:12:51.332Z,99.99
2018-08-30T00:13:51.321Z,99.99
2018-08-30T00:14:51.306Z,99.99
2018-08-30T00:15:51.295Z,99.99
2018-08-30T00:16:51.284Z,99.99
2018-08-30T00:17:51.271Z,99.99
2018-08-30T00:18:51.257Z,99.99
2018-08-30T00:19:51.244Z,99.99
2018-08-30T00:20:51.231Z,99.99
2018-08-30T00:21:51.227Z,99.99
2018-08-30T00:22:51.203Z,99.99
2018-08-30T00:23:51.202Z,99.99
2018-08-30T00:24:51.182Z,99.99
2018-08-30T00:25:51.172Z,99.99
2018-08-30T00:26:51.153Z,99.99
2018-08-30T00:27:51.143Z,99.99
2018-08-30T00:28:51.129Z,99.99
2018-08-30T00:29:51.113Z,99.99
2018-08-30T00:30:51.102Z,99.99
2018-08-30T00:31:51.095Z,99.99
2018-08-30T00:32:51.078Z,99.99
2018-08-30T00:33:51.061Z,99.99
2018-08-30T00:34:51.048Z,99.99
2018-08-30T00:35:51.036Z,99.99
2018-08-30T00:36:51.025Z,99.99
2018-08-30T00:37:51.017Z,99.99
2018-08-30T00:38:50.996Z,99.99
2018-08-30T00:39:50.985Z,99.99
2018-08-30T00:40:50.974Z,99.99
2018-08-30T00:41:50.960Z,99.99
2018-08-30T00:42:50.943Z,99.99
2018-08-30T00:43:50.931Z,99.99
2018-08-30T00:44:50.918Z,99.99
2018-08-30T00:45:50.908Z,99.99
2018-08-30T00:46:50.892Z,99.99
2018-08-30T00:47:50.882Z,99.99
2018-08-30T00:48:50.866Z,99.99
2018-08-30T00:49:50.853Z,99.99
2018-08-30T00:50:50.837Z,99.99
2018-08-30T00:51:50.826Z,99.99
2018-08-30T00:52:50.816Z,99.99
2018-08-30T00:53:50.801Z,99.99
2018-08-30T00:54:50.790Z,99.99
2018-08-30T00:55:50.776Z,99.99
2018-08-30T00:56:50.761Z,99.99
2018-08-30T00:57:50.751Z,99.99
2018-08-30T00:58:50.735Z,99.99
2018-08-30T00:59:50.724Z,99.99
2018-08-30T01:00:50.707Z,99.99
2018-08-30T01:01:50.698Z,99.99
2018-08-30T01:02:50.691Z,99.99
2018-08-30T01:03:50.674Z,99.99
2018-08-30T01:04:50.661Z,99.99
2018-08-30T01:05:50.648Z,99.99
2018-08-30T01:06:50.627Z,99.99
2018-08-30T01:07:50.616Z,99.99
2018-08-30T01:08:50.604Z,99.99
2018-08-30T01:09:50.588Z,99.99
2018-08-30T01:10:50.578Z,99.99
2018-08-30T01:11:50.564Z,99.99
2018-08-30T01:12:50.550Z,99.99
2018-08-30T01:13:50.536Z,99.99
2018-08-30T01:14:50.525Z,99.99
2018-08-30T01:15:50.508Z,99.99
2018-08-30T01:16:50.497Z,99.99
2018-08-30T01:17:50.482Z,99.99
2018-08-30T01:18:50.469Z,99.99
2018-08-30T01:19:50.454Z,99.99
2018-08-30T01:20:50.441Z,99.99
2018-08-30T01:21:50.429Z,99.99
2018-08-30T01:22:50.417Z,99.99
2018-08-30T01:23:50.400Z,99.99
2018-08-30T01:24:50.386Z,99.99
2018-08-30T01:25:50.374Z,99.99
2018-08-30T01:26:50.359Z,99.99
2018-08-30T01:27:50.348Z,99.99
2018-08-30T01:28:50.332Z,99.99
2018-08-30T01:29:50.319Z,99.99
2018-08-30T01:30:50.310Z,99.99
2018-08-30T01:31:50.294Z,99.99
2018-08-30T01:32:50.277Z,99.99
2018-08-30T01:33:50.265Z,99.99
2018-08-30T01:34:50.252Z,99.99
2018-08-30T01:35:50.243Z,99.99
2018-08-30T01:36:50.225Z,99.99
2018-08-30T01:37:50.212Z,99.99
2018-08-30T01:38:50.201Z,99.99
2018-08-30T01:39:50.184Z,99.99
2018-08-30T01:40:50.171Z,99.99
2018-08-30T01:41:50.156Z,99.99
2018-08-30T01:42:50.147Z,99.99
2018-08-30T01:43:50.130Z,99.99
2018-08-30T01:44:50.119Z,99.99
2018-08-30T01:45:50.104Z,99.99
2018-08-30T01:46:50.088Z,99.99
2018-08-30T01:47:50.081Z,99.99
2018-08-30T01:48:50.060Z,99.99
2018-08-30T01:49:50.052Z,99.99
2018-08-30T01:50:50.036Z,99.99
2018-08-30T01:51:50.026Z,99.99
2018-08-30T01:52:50.006Z,99.99
2018-08-30T01:53:50.000Z,99.99
2018-08-30T01:54:49.981Z,99.99
2018-08-30T01:55:49.966Z,99.99
2018-08-30T01:56:49.955Z,99.99
2018-08-30T01:57:49.941Z,99.99
2018-08-30T01:58:49.927Z,99.99
2018-08-30T01:59:49.912Z,99.99
2018-08-30T02:00:49.906Z,99.99
2018-08-30T02:01:49.887Z,99.99
2018-08-30T02:02:49.872Z,99.99
2018-08-30T02:03:49.863Z,99.99
2018-08-30T02:04:49.846Z,99.99
2018-08-30T02:05:49.833Z,99.99
2018-08-30T02:06:49.818Z,99.99
2018-08-30T02:07:49.810Z,99.99
2018-08-30T02:08:49.795Z,99.99
2018-08-30T02:09:49.779Z,99.99
2018-08-30T02:10:49.764Z,99.99
2018-08-30T02:11:49.755Z,99.99
2018-08-30T02:12:49.737Z,99.99
2018-08-30T02:13:49.728Z,99.99
2018-08-30T02:14:49.714Z,99.99
2018-08-30T02:15:49.698Z,99.99
2018-08-30T02:16:49.685Z,99.99
2018-08-30T02:17:49.671Z,99.99
2018-08-30T02:18:49.656Z,99.99
2018-08-30T02:19:49.644Z,99.99
2018-08-30T02:20:49.659Z,99.99
2018-08-30T02:21:49.620Z,99.99
2018-08-30T02:22:49.602Z,99.99
2018-08-30T02:23:49.591Z,99.99
2018-08-30T02:24:49.586Z,99.99
2018-08-30T02:25:49.566Z,99.99
2018-08-30T02:26:49.553Z,99.99
2018-08-30T02:27:49.537Z,99.99
2018-08-30T02:28:49.522Z,99.99
2018-08-30T02:29:49.510Z,99.99
2018-08-30T02:30:49.496Z,99.99
2018-08-30T02:31:49.484Z,99.99
2018-08-30T02:32:49.471Z,99.99
2018-08-30T02:33:49.459Z,99.99
2018-08-30T02:34:49.443Z,99.99
2018-08-30T02:35:49.432Z,99.99
2018-08-30T02:36:49.419Z,99.99
2018-08-30T02:37:49.404Z,99.99
2018-08-30T02:38:49.389Z,99.99
2018-08-30T02:39:49.390Z,99.99
2018-08-30T02:40:49.361Z,99.99
2018-08-30T02:41:49.363Z,99.99
2018-08-30T02:42:49.336Z,99.99
2018-08-30T02:43:49.324Z,99.99
2018-08-30T02:44:49.312Z,99.99
2018-08-30T02:45:49.296Z,99.99
2018-08-30T02:46:49.283Z,99.99
2018-08-30T02:47:49.271Z,99.99
2018-08-30T02:48:49.255Z,99.99
2018-08-30T02:49:49.244Z,99.99
2018-08-30T02:50:49.228Z,99.99
2018-08-30T02:51:49.213Z,99.99
2018-08-30T02:52:49.202Z,99.99
2018-08-30T02:53:49.190Z,99.99
2018-08-30T02:54:49.178Z,99.99
2018-08-30T02:55:49.164Z,99.99
2018-08-30T02:56:49.152Z,99.99
2018-08-30T02:57:49.136Z,99.99
2018-08-30T02:58:49.119Z,99.99
2018-08-30T02:59:49.106Z,99.99
2018-08-30T03:00:49.092Z,99.99
2018-08-30T03:01:49.086Z,99.99
2018-08-30T03:02:49.064Z,99.99
2018-08-30T03:03:49.061Z,99.99
2018-08-30T03:04:49.039Z,99.99
2018-08-30T03:05:49.029Z,99.99
2018-08-30T03:06:49.017Z,99.99
2018-08-30T03:07:49.002Z,99.99
2018-08-30T03:08:48.990Z,99.99
2018-08-30T03:09:48.972Z,99.99
2018-08-30T03:10:48.958Z,99.99
2018-08-30T03:11:48.950Z,99.99
2018-08-30T03:12:48.937Z,99.99
2018-08-30T03:13:48.924Z,99.99
2018-08-30T03:14:48.911Z,99.99
2018-08-30T03:15:48.895Z,99.99
2018-08-30T03:16:48.882Z,99.99
2018-08-30T03:17:48.868Z,99.99
2018-08-30T03:18:48.855Z,99.99
2018-08-30T03:19:48.840Z,99.99
2018-08-30T03:20:48.825Z,99.99
2018-08-30T03:21:48.813Z,99.99
2018-08-30T03:22:48.798Z,99.99
2018-08-30T03:23:48.791Z,99.99
2018-08-30T03:24:48.773Z,99.99
2018-08-30T03:25:48.761Z,99.99
2018-08-30T03:26:48.745Z,99.99
2018-08-30T03:27:48.733Z,99.99
2018-08-30T03:28:48.721Z,99.99
2018-08-30T03:29:48.703Z,99.99
2018-08-30T03:30:48.712Z,99.99
2018-08-30T03:31:48.680Z,99.99
2018-08-30T03:32:48.667Z,99.99
2018-08-30T03:33:48.656Z,99.99
2018-08-30T03:34:48.637Z,99.99
2018-08-30T03:35:48.624Z,99.99
2018-08-30T03:36:48.616Z,99.99
2018-08-30T03:37:48.598Z,99.99
2018-08-30T03:38:48.583Z,99.99
2018-08-30T03:39:48.572Z,99.99
2018-08-30T03:40:48.556Z,99.99
2018-08-30T03:41:48.543Z,99.99
2018-08-30T03:42:48.531Z,99.99
2018-08-30T03:43:48.516Z,99.99
2018-08-30T03:44:48.502Z,99.99
2018-08-30T03:45:48.492Z,99.99
2018-08-30T03:46:48.490Z,99.99
2018-08-30T03:47:48.467Z,99.99
2018-08-30T03:48:48.449Z,99.99
2018-08-30T03:49:48.443Z,99.99
2018-08-30T03:50:48.423Z,99.99
2018-08-30T03:51:48.408Z,99.99
2018-08-30T03:52:48.393Z,99.99
2018-08-30T03:53:48.382Z,99.99
2018-08-30T03:54:48.367Z,99.99
2018-08-30T03:55:48.353Z,99.99
2018-08-30T03:56:48.340Z,99.99
2018-08-30T03:57:48.328Z,99.99
2018-08-30T03:58:48.311Z,99.99
2018-08-30T03:59:48.298Z,99.99
2018-08-30T04:00:48.292Z,99.99
2018-08-30T04:01:48.273Z,99.99
2018-08-30T04:02:48.260Z,99.99
2018-08-30T04:03:48.248Z,99.99
2018-08-30T04:04:48.233Z,99.99
2018-08-30T04:05:48.219Z,99.99
2018-08-30T04:06:48.210Z,99.99
2018-08-30T04:07:48.193Z,99.99
2018-08-30T04:08:48.179Z,99.99
2018-08-30T04:09:48.184Z,99.99
2018-08-30T04:10:48.155Z,99.99
2018-08-30T04:11:48.145Z,99.99
2018-08-30T04:12:48.124Z,99.99
2018-08-30T04:13:48.112Z,99.99
2018-08-30T04:14:48.104Z,99.99
2018-08-30T04:15:48.087Z,99.99
2018-08-30T04:16:48.071Z,99.99
2018-08-30T04:17:48.070Z,99.99
2018-08-30T04:18:48.045Z,99.99
2018-08-30T04:19:48.030Z,99.99
2018-08-30T04:20:48.017Z,99.99
2018-08-30T04:21:48.003Z,99.99
2018-08-30T04:22:47.988Z,99.99
2018-08-30T04:23:47.974Z,99.99
2018-08-30T04:24:47.965Z,99.99
2018-08-30T04:25:47.950Z,99.99
2018-08-30T04:26:47.944Z,99.99
2018-08-30T04:27:47.921Z,99.99
2018-08-30T04:28:47.912Z,99.99
2018-08-30T04:29:47.906Z,99.99
2018-08-30T04:30:47.882Z,99.99
2018-08-30T04:31:47.868Z,99.99
2018-08-30T04:32:47.855Z,99.99
2018-08-30T04:33:47.841Z,99.99
2018-08-30T04:34:47.828Z,99.99
2018-08-30T04:35:47.821Z,99.99
2018-08-30T04:36:47.807Z,99.99
2018-08-30T04:37:47.791Z,99.99
2018-08-30T04:38:47.779Z,99.99
2018-08-30T04:39:47.763Z,99.99
2018-08-30T04:40:47.748Z,99.99
2018-08-30T04:41:47.740Z,99.99
2018-08-30T04:42:47.799Z,99.99
2018-08-30T04:43:47.709Z,99.99
2018-08-30T04:44:47.696Z,99.99
2018-08-30T04:45:47.684Z,99.99
2018-08-30T04:46:47.665Z,99.99
2018-08-30T04:47:47.653Z,99.99
2018-08-30T04:48:47.639Z,99.99
2018-08-30T04:49:47.633Z,99.99
2018-08-30T04:50:47.611Z,99.99
2018-08-30T04:51:47.599Z,99.99
2018-08-30T04:52:47.591Z,99.99
2018-08-30T04:53:47.571Z,99.99
2018-08-30T04:54:47.565Z,99.99
2018-08-30T04:55:47.542Z,99.99
2018-08-30T04:56:47.531Z,99.99
2018-08-30T04:57:47.521Z,99.99
2018-08-30T04:58:47.509Z,99.99
2018-08-30T04:59:47.495Z,99.99
2018-08-30T05:00:47.479Z,99.99
2018-08-30T05:01:47.503Z,99.99
2018-08-30T05:02:47.448Z,99.99
2018-08-30T05:03:47.434Z,99.99
2018-08-30T05:04:47.421Z,99.99
2018-08-30T05:05:47.409Z,99.99
2018-08-30T05:06:47.394Z,99.99
2018-08-30T05:07:47.381Z,99.99
2018-08-30T05:08:47.372Z,99.99
2018-08-30T05:09:47.354Z,99.99
2018-08-30T05:10:47.349Z,99.99
2018-08-30T05:11:47.325Z,99.99
2018-08-30T05:12:47.312Z,99.99
2018-08-30T05:13:47.301Z,99.99
2018-08-30T05:14:47.289Z,99.99
2018-08-30T05:15:47.276Z,99.99
2018-08-30T05:16:47.259Z,99.99
2018-08-30T05:17:47.250Z,99.99
2018-08-30T05:18:47.235Z,99.99
2018-08-30T05:19:47.217Z,99.99
2018-08-30T05:20:47.225Z,99.99
2018-08-30T05:21:47.196Z,99.99
2018-08-30T05:22:47.177Z,99.99
2018-08-30T05:23:47.168Z,99.99
2018-08-30T05:24:47.154Z,99.99
2018-08-30T05:25:47.137Z,99.99
2018-08-30T05:26:47.122Z,99.99
2018-08-30T05:27:47.112Z,99.99
2018-08-30T05:28:47.105Z,99.99
2018-08-30T05:29:47.184Z,99.99
2018-08-30T05:30:47.084Z,99.99
2018-08-30T05:31:47.059Z,99.99
2018-08-30T05:32:47.041Z,99.99
2018-08-30T05:33:47.030Z,99.99
2018-08-30T05:34:47.019Z,99.99
2018-08-30T05:35:47.042Z,99.99
2018-08-30T05:36:46.992Z,99.99
2018-08-30T05:37:46.974Z,99.99
2018-08-30T05:38:46.961Z,99.99
2018-08-30T05:39:46.956Z,99.99
2018-08-30T05:40:46.937Z,99.99
2018-08-30T05:41:46.921Z,99.99
2018-08-30T05:42:46.908Z,99.99
2018-08-30T05:43:46.891Z,99.99
2018-08-30T05:44:46.987Z,99.99
2018-08-30T05:45:46.866Z,99.99
2018-08-30T05:46:46.852Z,99.99
2018-08-30T05:47:46.846Z,99.99
2018-08-30T05:48:46.823Z,99.99
2018-08-30T05:49:46.809Z,99.99
2018-08-30T05:50:46.795Z,99.99
2018-08-30T05:51:46.784Z,99.99
2018-08-30T05:52:46.771Z,99.99
2018-08-30T05:53:46.757Z,99.99
2018-08-30T05:54:46.749Z,99.99
2018-08-30T05:55:46.727Z,99.99
2018-08-30T05:56:46.735Z,99.99
2018-08-30T05:57:46.700Z,99.99
2018-08-30T05:58:46.690Z,99.99
2018-08-30T05:59:46.676Z,99.99
2018-08-30T06:00:46.658Z,99.99
2018-08-30T06:01:46.647Z,99.99
2018-08-30T06:02:46.642Z,99.99
2018-08-30T06:03:46.618Z,99.99
2018-08-30T06:04:46.613Z,99.99
2018-08-30T06:05:46.592Z,99.99
2018-08-30T06:06:46.583Z,99.99
2018-08-30T06:07:46.562Z,99.99
2018-08-30T06:08:46.551Z,99.99
2018-08-30T06:09:46.537Z,99.99
2018-08-30T06:10:46.526Z,99.99
2018-08-30T06:11:46.510Z,99.99
2018-08-30T06:12:46.496Z,99.99
2018-08-30T06:13:46.481Z,99.99
2018-08-30T06:14:46.471Z,99.99
2018-08-30T06:15:46.455Z,99.99
2018-08-30T06:16:46.449Z,99.99
2018-08-30T06:17:46.429Z,99.99
2018-08-30T06:18:46.414Z,99.99
2018-08-30T06:19:46.402Z,99.99
2018-08-30T06:20:46.390Z,99.99
2018-08-30T06:21:46.374Z,99.99
2018-08-30T06:22:46.359Z,99.99
2018-08-30T06:23:46.347Z,99.99
2018-08-30T06:24:46.335Z,99.99
2018-08-30T06:25:46.324Z,99.99
2018-08-30T06:26:46.371Z,99.99
2018-08-30T06:27:46.293Z,99.99
2018-08-30T06:28:46.279Z,99.99
2018-08-30T06:29:46.272Z,99.99
2018-08-30T06:30:46.252Z,99.99
2018-08-30T06:31:46.238Z,99.99
2018-08-30T06:32:46.281Z,99.99
2018-08-30T06:33:46.213Z,99.99
2018-08-30T06:34:46.247Z,99.99
2018-08-30T06:35:46.206Z,99.99
2018-08-30T06:36:46.173Z,99.99
2018-08-30T06:37:46.165Z,99.99
2018-08-30T06:38:46.182Z,99.99
2018-08-30T06:40:16.887Z,99.99
2018-08-30T06:40:46.289Z,99.99
2018-08-30T06:41:46.158Z,99.99
2018-08-30T06:42:46.101Z,99.99
2018-08-30T06:43:46.092Z,99.99
2018-08-30T06:44:46.067Z,99.99
2018-08-30T06:45:46.055Z,99.99
2018-08-30T06:46:46.044Z,99.99
2018-08-30T06:47:46.029Z,99.99
2018-08-30T06:48:46.021Z,99.99
2018-08-30T06:49:46.004Z,99.99
2018-08-30T06:50:45.994Z,99.99
2018-08-30T06:51:45.979Z,99.99
2018-08-30T06:52:45.961Z,99.99
2018-08-30T06:53:45.951Z,99.99
2018-08-30T06:54:45.939Z,99.99
2018-08-30T06:55:45.922Z,99.99
2018-08-30T06:56:45.909Z,99.99
2018-08-30T06:57:45.897Z,99.99
2018-08-30T06:58:45.882Z,99.99
2018-08-30T06:59:45.879Z,99.99
2018-08-30T07:00:45.857Z,99.99
2018-08-30T07:01:45.847Z,99.99
2018-08-30T07:02:45.828Z,99.99
2018-08-30T07:03:45.820Z,99.99
2018-08-30T07:04:45.807Z,99.99
2018-08-30T07:05:45.794Z,99.99
2018-08-30T07:06:45.778Z,99.99
2018-08-30T07:07:45.765Z,99.99
2018-08-30T07:08:45.755Z,99.99
2018-08-30T07:09:45.742Z,99.99
2018-08-30T07:10:45.726Z,99.99
2018-08-30T07:11:45.716Z,99.99
2018-08-30T07:12:45.717Z,99.99
2018-08-30T07:13:45.688Z,99.99
2018-08-30T07:14:45.759Z,99.99
2018-08-30T07:15:45.663Z,99.99
2018-08-30T07:16:45.650Z,99.99
2018-08-30T07:17:45.635Z,99.99
2018-08-30T07:18:45.624Z,99.99
2018-08-30T07:19:45.608Z,99.99
2018-08-30T07:20:45.600Z,99.99
2018-08-30T07:21:45.586Z,99.99
2018-08-30T07:22:45.570Z,99.99
2018-08-30T07:23:45.556Z,99.99
2018-08-30T07:24:45.546Z,99.99
2018-08-30T07:25:45.539Z,99.99
2018-08-30T07:26:45.513Z,99.99
2018-08-30T07:27:45.505Z,99.99
2018-08-30T07:28:45.498Z,99.99
2018-08-30T07:29:45.479Z,99.99
2018-08-30T07:30:45.468Z,99.99
2018-08-30T07:31:45.458Z,99.99
2018-08-30T07:32:45.442Z,99.99
2018-08-30T07:33:45.433Z,99.99
2018-08-30T07:34:45.457Z,99.99
2018-08-30T07:35:45.406Z,99.99
2018-08-30T07:36:45.390Z,99.99
2018-08-30T07:37:45.378Z,99.99
2018-08-30T07:38:45.369Z,99.99
2018-08-30T07:39:45.353Z,99.99
2018-08-30T07:40:45.340Z,99.99
2018-08-30T07:41:45.341Z,99.99
2018-08-30T07:42:45.398Z,99.99
2018-08-30T07:43:45.337Z,99.74
2018-08-30T07:44:45.301Z,99.07
2018-08-30T07:45:45.288Z,99.26
2018-08-30T07:46:45.281Z,96.89
2018-08-30T07:47:45.268Z,95.64
2018-08-30T07:48:45.253Z,93.85
2018-08-30T07:49:45.243Z,92.55
2018-08-30T07:50:45.240Z,89.51
2018-08-30T07:51:45.228Z,90.95
2018-08-30T07:52:45.217Z,92.07
2018-08-30T07:53:45.213Z,92.46
2018-08-30T07:54:45.198Z,90.95
2018-08-30T07:55:45.194Z,87.71
2018-08-30T07:56:45.184Z,88.06
2018-08-30T07:57:45.179Z,88.64
2018-08-30T07:58:45.187Z,85.98
2018-08-30T07:59:45.159Z,87.67
2018-08-30T08:00:45.157Z,86.56
2018-08-30T08:01:45.150Z,86.56
2018-08-30T08:02:45.137Z,85.15
2018-08-30T08:03:45.135Z,85.15
2018-08-30T08:04:45.122Z,81.87
2018-08-30T08:05:45.118Z,82.83
2018-08-30T08:06:45.110Z,81.48
2018-08-30T08:07:45.110Z,83.67
2018-08-30T08:08:45.119Z,85.64
2018-08-30T08:09:45.089Z,88.45
2018-08-30T08:10:45.082Z,91.02
2018-08-30T08:11:45.082Z,91.54
2018-08-30T08:12:45.157Z,92.02
2018-08-30T08:13:45.061Z,91.44
2018-08-30T08:14:45.056Z,91.69
2018-08-30T08:15:45.056Z,92.17
2018-08-30T08:16:45.046Z,91.74
2018-08-30T08:17:45.034Z,89.75
2018-08-30T08:18:45.039Z,86.71
2018-08-30T08:19:45.020Z,84.88
2018-08-30T08:20:45.016Z,82.40
2018-08-30T08:21:45.007Z,83.19
2018-08-30T08:22:44.998Z,85.17
2018-08-30T08:23:44.996Z,86.96
2018-08-30T08:24:45.012Z,84.25
2018-08-30T08:25:44.980Z,86.47
2018-08-30T08:26:44.973Z,87.63
2018-08-30T08:27:44.965Z,86.13
2018-08-30T08:28:44.960Z,84.72
2018-08-30T08:29:44.949Z,83.62
2018-08-30T08:30:44.942Z,85.12
2018-08-30T08:31:44.937Z,86.47
2018-08-30T08:32:44.934Z,83.39
2018-08-30T08:33:44.930Z,85.37
2018-08-30T08:34:44.929Z,83.00
2018-08-30T08:35:44.955Z,79.25
2018-08-30T08:36:44.904Z,80.66
2018-08-30T08:37:44.896Z,78.33
2018-08-30T08:38:44.891Z,77.65
2018-08-30T08:39:44.885Z,79.20
2018-08-30T08:40:44.878Z,75.83
2018-08-30T08:41:44.875Z,72.40
2018-08-30T08:42:44.867Z,74.21
2018-08-30T08:43:44.865Z,71.37
2018-08-30T08:44:44.863Z,70.40
2018-08-30T08:45:44.860Z,72.02
2018-08-30T08:46:44.845Z,72.05
2018-08-30T08:47:44.852Z,72.79
2018-08-30T08:48:44.842Z,69.47
2018-08-30T08:49:44.835Z,68.47
2018-08-30T08:50:44.830Z,68.30
2018-08-30T08:51:44.828Z,70.40
2018-08-30T08:52:44.820Z,70.21
2018-08-30T08:53:44.819Z,70.62
2018-08-30T08:54:44.811Z,71.78
2018-08-30T08:55:44.805Z,70.66
2018-08-30T08:56:44.799Z,70.21
2018-08-30T08:57:44.796Z,67.79
2018-08-30T08:58:44.821Z,64.17
2018-08-30T08:59:44.787Z,64.69
2018-08-30T09:00:44.783Z,67.05
2018-08-30T09:01:44.782Z,69.31
2018-08-30T09:02:44.771Z,69.60
2018-08-30T09:03:44.772Z,68.44
2018-08-30T09:04:44.763Z,65.34
2018-08-30T09:05:44.758Z,63.91
2018-08-30T09:06:44.798Z,63.43
2018-08-30T09:07:44.878Z,61.74
2018-08-30T09:08:44.750Z,60.35
2018-08-30T09:09:44.745Z,58.72
2018-08-30T09:10:44.737Z,57.10
2018-08-30T09:11:44.739Z,55.90
2018-08-30T09:12:44.732Z,55.93
2018-08-30T09:13:44.734Z,55.27
2018-08-30T09:14:44.728Z,54.74
2018-08-30T09:15:44.721Z,54.86
2018-08-30T09:16:44.721Z,55.44
2018-08-30T09:17:44.714Z,55.44
2018-08-30T09:18:44.714Z,56.12
2018-08-30T09:19:44.712Z,53.91
2018-08-30T09:20:44.711Z,54.52
2018-08-30T09:21:44.708Z,53.58
2018-08-30T09:22:44.710Z,53.99
2018-08-30T09:23:44.698Z,54.99
2018-08-30T09:24:44.704Z,54.06
2018-08-30T09:25:44.693Z,53.79
2018-08-30T09:26:44.738Z,58.18
2018-08-30T09:27:44.686Z,58.31
2018-08-30T09:28:44.684Z,55.61
2018-08-30T09:29:44.684Z,54.74
2018-08-30T09:30:44.675Z,54.86
2018-08-30T09:31:44.673Z,53.59
2018-08-30T09:32:44.680Z,53.99
2018-08-30T09:33:44.698Z,53.59
2018-08-30T09:34:44.675Z,52.94
2018-08-30T09:35:44.657Z,52.98
2018-08-30T09:36:44.668Z,54.78
2018-08-30T09:37:44.653Z,57.73
2018-08-30T09:38:44.647Z,57.76
2018-08-30T09:39:44.645Z,57.80
2018-08-30T09:40:44.641Z,60.39
2018-08-30T09:41:44.632Z,62.66
2018-08-30T09:42:44.632Z,63.49
2018-08-30T09:43:44.674Z,65.50
2018-08-30T09:44:44.622Z,66.78
2018-08-30T09:45:44.626Z,68.24
2018-08-30T09:46:44.609Z,70.04
2018-08-30T09:47:44.605Z,72.36
2018-08-30T09:48:44.598Z,73.13
2018-08-30T09:49:44.641Z,67.69
2018-08-30T09:50:44.598Z,66.17
2018-08-30T09:51:44.578Z,63.56
2018-08-30T09:52:44.571Z,62.56
2018-08-30T09:53:44.564Z,64.62
2018-08-30T09:54:44.554Z,66.91
2018-08-30T09:55:44.568Z,68.98
2018-08-30T09:56:44.597Z,70.39
2018-08-30T09:57:44.536Z,71.32
2018-08-30T09:58:44.526Z,72.28
2018-08-30T09:59:44.516Z,71.20
2018-08-30T10:00:44.512Z,70.14
2018-08-30T10:01:44.505Z,68.59
2018-08-30T10:02:44.497Z,64.37
2018-08-30T10:03:44.490Z,62.56
2018-08-30T10:04:44.586Z,60.91
2018-08-30T10:05:44.468Z,62.66
2018-08-30T10:06:44.462Z,60.68
2018-08-30T10:07:44.462Z,60.17
2018-08-30T10:08:44.446Z,60.75
2018-08-30T10:09:44.456Z,61.11
2018-08-30T10:10:44.426Z,61.59
2018-08-30T10:11:44.418Z,60.82
2018-08-30T10:12:44.411Z,60.10
2018-08-30T10:13:44.402Z,58.84
2018-08-30T10:14:44.396Z,58.97
2018-08-30T10:15:44.429Z,59.13
2018-08-30T10:16:44.382Z,60.04
2018-08-30T10:17:44.376Z,61.76
2018-08-30T10:18:44.366Z,62.59
2018-08-30T10:19:44.358Z,63.50
2018-08-30T10:20:44.354Z,65.24
2018-08-30T10:21:44.343Z,64.50
2018-08-30T10:22:44.335Z,64.82
2018-08-30T10:23:44.327Z,63.69
2018-08-30T10:24:44.323Z,62.75
2018-08-30T10:25:44.364Z,60.14
2018-08-30T10:26:44.296Z,60.36
2018-08-30T10:27:44.288Z,59.91
2018-08-30T10:28:44.281Z,59.13
2018-08-30T10:29:44.273Z,59.59
2018-08-30T10:30:44.264Z,59.27
2018-08-30T10:31:44.256Z,60.33
2018-08-30T10:32:44.251Z,61.11
2018-08-30T10:33:44.249Z,62.34
2018-08-30T10:34:44.236Z,62.53
2018-08-30T10:35:44.228Z,61.08
2018-08-30T10:36:44.215Z,60.47
2018-08-30T10:37:44.210Z,60.08
2018-08-30T10:38:44.205Z,60.11
2018-08-30T10:39:44.225Z,61.08
2018-08-30T10:40:44.194Z,59.94
2018-08-30T10:41:44.185Z,60.27
2018-08-30T10:42:44.173Z,59.88
2018-08-30T10:43:44.161Z,60.65
2018-08-30T10:44:44.164Z,61.11
2018-08-30T10:45:44.143Z,60.04
2018-08-30T10:46:44.136Z,59.84
2018-08-30T10:47:44.125Z,60.17
2018-08-30T10:48:44.123Z,60.33
2018-08-30T10:49:44.267Z,60.69
2018-08-30T10:50:44.106Z,61.60
2018-08-30T10:51:44.096Z,63.31
2018-08-30T10:52:44.091Z,63.60
2018-08-30T10:53:44.080Z,63.82
2018-08-30T10:54:44.070Z,62.66
2018-08-30T10:55:44.066Z,60.66
2018-08-30T10:56:44.055Z,60.75
2018-08-30T10:57:44.050Z,61.08
2018-08-30T10:58:44.036Z,60.72
2018-08-30T10:59:44.029Z,59.84
2018-08-30T11:00:44.024Z,59.46
2018-08-30T11:01:44.012Z,58.98
2018-08-30T11:02:44.016Z,58.59
2018-08-30T11:03:44.054Z,58.20
2018-08-30T11:04:43.987Z,58.72
2018-08-30T11:05:43.980Z,57.68
2018-08-30T11:06:43.969Z,57.09
2018-08-30T11:07:43.964Z,57.22
2018-08-30T11:08:43.955Z,56.54
2018-08-30T11:09:43.959Z,55.67
2018-08-30T11:10:43.969Z,56.05
2018-08-30T11:11:43.930Z,54.82
2018-08-30T11:12:43.930Z,55.89
2018-08-30T11:13:43.915Z,56.18
2018-08-30T11:14:43.912Z,56.28
2018-08-30T11:15:43.898Z,55.57
2018-08-30T11:16:43.890Z,54.60
2018-08-30T11:17:43.884Z,55.47
2018-08-30T11:18:43.876Z,54.99
2018-08-30T11:19:43.865Z,55.38
2018-08-30T11:20:43.860Z,57.29
2018-08-30T11:21:43.853Z,57.65
2018-08-30T11:22:43.846Z,58.91
2018-08-30T11:23:43.862Z,58.84
2018-08-30T11:24:43.834Z,57.87
2018-08-30T11:25:43.823Z,56.32
2018-08-30T11:26:43.811Z,56.51
2018-08-30T11:27:43.801Z,56.39
2018-08-30T11:28:43.799Z,55.54
2018-08-30T11:29:43.788Z,56.13
2018-08-30T11:30:43.783Z,57.26
2018-08-30T11:31:43.774Z,56.20
2018-08-30T11:32:43.762Z,56.68
2018-08-30T11:33:43.757Z,56.49
2018-08-30T11:34:43.747Z,57.04
2018-08-30T11:35:43.743Z,56.97
2018-08-30T11:36:43.740Z,56.26
2018-08-30T11:37:43.763Z,57.23
2018-08-30T11:38:43.718Z,57.43
2018-08-30T11:39:43.707Z,57.71
2018-08-30T11:40:43.700Z,58.30
2018-08-30T11:41:43.710Z,58.98
2018-08-30T11:42:43.683Z,56.94
2018-08-30T11:43:43.687Z,57.53
2018-08-30T11:44:43.679Z,56.92
2018-08-30T11:45:43.662Z,57.11
2018-08-30T11:46:43.654Z,58.63
2018-08-30T11:47:43.645Z,59.28
2018-08-30T11:48:43.640Z,60.63
2018-08-30T11:49:43.627Z,60.85
2018-08-30T11:50:43.629Z,60.44
2018-08-30T11:51:43.611Z,60.34
2018-08-30T11:52:43.632Z,60.72
2018-08-30T11:53:43.592Z,61.02
2018-08-30T11:54:43.588Z,62.08
2018-08-30T11:55:43.573Z,62.76
2018-08-30T11:56:43.566Z,60.24
2018-08-30T11:57:43.559Z,59.76
2018-08-30T11:58:43.554Z,60.11
2018-08-30T11:59:43.544Z,60.21
2018-08-30T12:00:43.549Z,60.99
2018-08-30T12:01:43.530Z,61.66
2018-08-30T12:02:43.510Z,61.50
2018-08-30T12:03:43.512Z,60.60
2018-08-30T12:04:43.502Z,61.76
2018-08-30T12:05:43.485Z,62.44
2018-08-30T12:06:43.486Z,62.82
2018-08-30T12:07:43.466Z,63.02
2018-08-30T12:08:43.461Z,62.92
2018-08-30T12:09:43.452Z,61.69
2018-08-30T12:10:43.586Z,62.08
2018-08-30T12:11:43.469Z,61.50
2018-08-30T12:12:43.422Z,61.21
2018-08-30T12:13:43.414Z,60.95
2018-08-30T12:14:43.405Z,62.11
2018-08-30T12:15:43.406Z,59.91
2018-08-30T12:16:43.393Z,59.46
2018-08-30T12:17:43.382Z,58.81
2018-08-30T12:18:43.379Z,59.13
2018-08-30T12:19:43.360Z,59.55
2018-08-30T12:20:43.477Z,56.28
2018-08-30T12:21:43.344Z,55.38
2018-08-30T12:22:43.338Z,55.26
2018-08-30T12:23:43.327Z,56.13
2018-08-30T12:24:43.321Z,56.41
2018-08-30T12:25:43.315Z,55.93
2018-08-30T12:26:43.305Z,55.54
2018-08-30T12:27:43.307Z,55.98
2018-08-30T12:28:43.405Z,56.26
2018-08-30T12:29:43.320Z,55.71
2018-08-30T12:30:43.301Z,55.62
2018-08-30T12:31:43.300Z,54.86
2018-08-30T12:32:43.258Z,54.77
2018-08-30T12:33:43.245Z,53.44
2018-08-30T12:34:43.329Z,52.95
2018-08-30T12:35:43.389Z,52.86
2018-08-30T12:36:43.270Z,53.12
2018-08-30T12:37:43.286Z,54.13
2018-08-30T12:38:43.225Z,55.49
2018-08-30T12:39:43.299Z,55.88
2018-08-30T12:40:43.219Z,56.10
2018-08-30T12:41:43.209Z,55.52
2018-08-30T12:42:43.259Z,55.71
2018-08-30T12:43:43.365Z,55.22
2018-08-30T12:44:43.169Z,55.49
2018-08-30T12:45:43.159Z,55.49
2018-08-30T12:46:43.225Z,55.68
2018-08-30T12:47:43.145Z,55.71
2018-08-30T12:48:43.128Z,55.10
2018-08-30T12:49:43.121Z,55.30
2018-08-30T12:50:43.341Z,55.30
2018-08-30T12:51:43.269Z,55.49
2018-08-30T12:52:43.207Z,55.78